Hunter, North Dakota
Current Conditions -  °F | °C
As of 11:53 AM on Sunday 25 Jan 2015 (Local Time) from KFAR Reporting Station
Clear Clear  
Wind Chill: 25°   Ceiling: Unl
Heat Index: 25°   Visibility: 10mi
Dew Point: 14°   Wind: 0mph
Humidity: 63%   Direction: NA
Pressure: 30.04"   Gusts: NA
Location:  47.19°N, 97.22°W
Report Text: KFAR 251753Z 00000KT 10SM CLR M04/M10 A3004 RMK AO2 SLP188 T10391100 11039 21072 50002
Loading
Personal Weather Stations






























Interactive Weather Map New forecast layout! Learn more

10-Day Weather Forecast

Advertisements
Track Severe Weather on mobile